sensor_id;sensor_type;location;lat;lon;timestamp;P1;durP1;ratioP1;P2;durP2;ratioP2
67352;SDS011;54238;52.278;21.056;2022-12-07T00:02:50;14.10;;;9.10;;
67352;SDS011;54238;52.278;21.056;2022-12-07T00:05:22;12.50;;;8.80;;
67352;SDS011;54238;52.278;21.056;2022-12-07T00:07:51;12.60;;;8.60;;
67352;SDS011;54238;52.278;21.056;2022-12-07T00:10:25;13.40;;;8.50;;
67352;SDS011;54238;52.278;21.056;2022-12-07T00:12:52;12.40;;;9.10;;
67352;SDS011;54238;52.278;21.056;2022-12-07T00:15:22;13.00;;;9.80;;
67352;SDS011;54238;52.278;21.056;2022-12-07T00:17:52;16.30;;;9.60;;
67352;SDS011;54238;52.278;21.056;2022-12-07T00:20:21;17.40;;;10.50;;
67352;SDS011;54238;52.278;21.056;2022-12-07T00:22:48;22.50;;;9.70;;
67352;SDS011;54238;52.278;21.056;2022-12-07T00:25:20;15.60;;;10.80;;
67352;SDS011;54238;52.278;21.056;2022-12-07T00:27:52;17.00;;;10.30;;
67352;SDS011;54238;52.278;21.056;2022-12-07T00:30:23;18.40;;;11.10;;
67352;SDS011;54238;52.278;21.056;2022-12-07T00:32:53;15.40;;;11.00;;
67352;SDS011;54238;52.278;21.056;2022-12-07T00:35:20;18.30;;;11.30;;
67352;SDS011;54238;52.278;21.056;2022-12-07T00:37:52;18.60;;;11.90;;
67352;SDS011;54238;52.278;21.056;2022-12-07T00:40:19;16.70;;;11.90;;
67352;SDS011;54238;52.278;21.056;2022-12-07T00:42:46;19.10;;;12.40;;
67352;SDS011;54238;52.278;21.056;2022-12-07T00:45:13;19.20;;;12.00;;
67352;SDS011;54238;52.278;21.056;2022-12-07T00:47:41;20.80;;;12.60;;
67352;SDS011;54238;52.278;21.056;2022-12-07T00:50:10;23.40;;;14.10;;
67352;SDS011;54238;52.278;21.056;2022-12-07T00:52:42;26.40;;;15.30;;
67352;SDS011;54238;52.278;21.056;2022-12-07T00:55:11;16.80;;;12.70;;
67352;SDS011;54238;52.278;21.056;2022-12-07T00:57:39;23.00;;;14.50;;
67352;SDS011;54238;52.278;21.056;2022-12-07T01:00:07;31.70;;;16.90;;
67352;SDS011;54238;52.278;21.056;2022-12-07T01:02:39;27.80;;;15.70;;
67352;SDS011;54238;52.278;21.056;2022-12-07T01:05:09;26.90;;;15.80;;
67352;SDS011;54238;52.278;21.056;2022-12-07T01:07:39;27.80;;;16.40;;
67352;SDS011;54238;52.278;21.056;2022-12-07T01:10:10;31.90;;;18.40;;
67352;SDS011;54238;52.278;21.056;2022-12-07T01:12:38;35.50;;;20.50;;
67352;SDS011;54238;52.278;21.056;2022-12-07T01:15:09;37.70;;;18.30;;
67352;SDS011;54238;52.278;21.056;2022-12-07T01:17:36;37.20;;;20.90;;
67352;SDS011;54238;52.278;21.056;2022-12-07T01:20:04;31.60;;;17.50;;
67352;SDS011;54238;52.278;21.056;2022-12-07T01:22:38;38.20;;;20.40;;
67352;SDS011;54238;52.278;21.056;2022-12-07T01:25:11;48.80;;;21.60;;
67352;SDS011;54238;52.278;21.056;2022-12-07T01:27:43;44.70;;;21.60;;
67352;SDS011;54238;52.278;21.056;2022-12-07T01:30:15;36.00;;;20.90;;
67352;SDS011;54238;52.278;21.056;2022-12-07T01:32:43;41.40;;;20.70;;
67352;SDS011;54238;52.278;21.056;2022-12-07T01:35:10;38.60;;;20.10;;
67352;SDS011;54238;52.278;21.056;2022-12-07T01:37:42;40.00;;;20.20;;
67352;SDS011;54238;52.278;21.056;2022-12-07T01:40:12;37.10;;;20.10;;
67352;SDS011;54238;52.278;21.056;2022-12-07T01:42:39;36.70;;;20.70;;
67352;SDS011;54238;52.278;21.056;2022-12-07T01:47:53;31.10;;;17.20;;
67352;SDS011;54238;52.278;21.056;2022-12-07T01:50:27;35.70;;;19.60;;
67352;SDS011;54238;52.278;21.056;2022-12-07T01:53:02;36.90;;;19.30;;
67352;SDS011;54238;52.278;21.056;2022-12-07T01:55:41;33.40;;;19.20;;
67352;SDS011;54238;52.278;21.056;2022-12-07T01:58:14;35.50;;;17.90;;
67352;SDS011;54238;52.278;21.056;2022-12-07T02:00:46;31.80;;;17.60;;
67352;SDS011;54238;52.278;21.056;2022-12-07T02:03:32;31.10;;;19.10;;
67352;SDS011;54238;52.278;21.056;2022-12-07T02:06:05;32.20;;;17.60;;
67352;SDS011;54238;52.278;21.056;2022-12-07T02:08:42;34.60;;;18.20;;
67352;SDS011;54238;52.278;21.056;2022-12-07T02:11:09;38.90;;;19.80;;
67352;SDS011;54238;52.278;21.056;2022-12-07T02:13:39;38.70;;;18.10;;
67352;SDS011;54238;52.278;21.056;2022-12-07T02:28:02;25.60;;;13.60;;
67352;SDS011;54238;52.278;21.056;2022-12-07T02:30:45;23.90;;;12.90;;
67352;SDS011;54238;52.278;21.056;2022-12-07T02:33:30;22.00;;;12.90;;
67352;SDS011;54238;52.278;21.056;2022-12-07T02:36:10;22.30;;;12.30;;
67352;SDS011;54238;52.278;21.056;2022-12-07T02:41:33;24.10;;;13.00;;
67352;SDS011;54238;52.278;21.056;2022-12-07T02:44:10;19.80;;;11.00;;
67352;SDS011;54238;52.278;21.056;2022-12-07T02:46:52;19.70;;;12.00;;
67352;SDS011;54238;52.278;21.056;2022-12-07T02:49:24;20.20;;;10.80;;
67352;SDS011;54238;52.278;21.056;2022-12-07T02:51:55;20.20;;;11.60;;
67352;SDS011;54238;52.278;21.056;2022-12-07T02:54:25;21.20;;;12.20;;
67352;SDS011;54238;52.278;21.056;2022-12-07T03:05:57;19.40;;;10.30;;
67352;SDS011;54238;52.278;21.056;2022-12-07T03:09:01;16.40;;;9.80;;
67352;SDS011;54238;52.278;21.056;2022-12-07T03:11:46;15.30;;;8.80;;
67352;SDS011;54238;52.278;21.056;2022-12-07T03:14:26;12.00;;;8.70;;
67352;SDS011;54238;52.278;21.056;2022-12-07T03:19:43;13.70;;;9.00;;
67352;SDS011;54238;52.278;21.056;2022-12-07T03:22:13;15.40;;;9.00;;
67352;SDS011;54238;52.278;21.056;2022-12-07T03:24:58;16.60;;;9.40;;
67352;SDS011;54238;52.278;21.056;2022-12-07T03:27:44;15.10;;;8.70;;
67352;SDS011;54238;52.278;21.056;2022-12-07T03:30:31;14.60;;;7.80;;
67352;SDS011;54238;52.278;21.056;2022-12-07T03:33:29;13.70;;;7.90;;
67352;SDS011;54238;52.278;21.056;2022-12-07T03:36:07;13.00;;;6.50;;
67352;SDS011;54238;52.278;21.056;2022-12-07T03:38:57;10.70;;;7.00;;
67352;SDS011;54238;52.278;21.056;2022-12-07T03:41:48;14.10;;;7.80;;
67352;SDS011;54238;52.278;21.056;2022-12-07T03:44:22;12.30;;;7.20;;
67352;SDS011;54238;52.278;21.056;2022-12-07T03:52:33;10.60;;;6.70;;
67352;SDS011;54238;52.278;21.056;2022-12-07T03:55:30;11.10;;;7.40;;
67352;SDS011;54238;52.278;21.056;2022-12-07T03:58:07;13.00;;;7.30;;
67352;SDS011;54238;52.278;21.056;2022-12-07T04:00:41;12.50;;;8.00;;
67352;SDS011;54238;52.278;21.056;2022-12-07T04:03:11;13.30;;;7.80;;
67352;SDS011;54238;52.278;21.056;2022-12-07T04:05:41;12.30;;;8.00;;
67352;SDS011;54238;52.278;21.056;2022-12-07T04:08:11;11.70;;;7.90;;
67352;SDS011;54238;52.278;21.056;2022-12-07T04:10:39;11.00;;;7.10;;
67352;SDS011;54238;52.278;21.056;2022-12-07T04:13:09;13.80;;;7.80;;
67352;SDS011;54238;52.278;21.056;2022-12-07T04:15:41;12.70;;;7.30;;
67352;SDS011;54238;52.278;21.056;2022-12-07T04:18:08;12.70;;;7.80;;
67352;SDS011;54238;52.278;21.056;2022-12-07T04:20:35;9.20;;;6.30;;
67352;SDS011;54238;52.278;21.056;2022-12-07T04:23:05;11.30;;;7.50;;
67352;SDS011;54238;52.278;21.056;2022-12-07T04:25:33;10.00;;;6.30;;
67352;SDS011;54238;52.278;21.056;2022-12-07T04:28:00;10.10;;;6.00;;
67352;SDS011;54238;52.278;21.056;2022-12-07T04:30:27;9.60;;;5.60;;
67352;SDS011;54238;52.278;21.056;2022-12-07T04:32:58;9.80;;;6.40;;
67352;SDS011;54238;52.278;21.056;2022-12-07T04:35:25;11.10;;;7.10;;
67352;SDS011;54238;52.278;21.056;2022-12-07T04:37:55;10.90;;;6.00;;
67352;SDS011;54238;52.278;21.056;2022-12-07T04:40:24;9.90;;;6.10;;
67352;SDS011;54238;52.278;21.056;2022-12-07T04:42:56;7.90;;;6.00;;
67352;SDS011;54238;52.278;21.056;2022-12-07T04:45:26;8.90;;;4.60;;
67352;SDS011;54238;52.278;21.056;2022-12-07T04:47:53;9.90;;;5.50;;
67352;SDS011;54238;52.278;21.056;2022-12-07T04:50:24;8.20;;;5.40;;
67352;SDS011;54238;52.278;21.056;2022-12-07T04:52:59;8.40;;;5.80;;
67352;SDS011;54238;52.278;21.056;2022-12-07T04:55:26;10.60;;;6.20;;
67352;SDS011;54238;52.278;21.056;2022-12-07T04:57:53;9.40;;;6.20;;
67352;SDS011;54238;52.278;21.056;2022-12-07T05:00:20;9.80;;;6.20;;
67352;SDS011;54238;52.278;21.056;2022-12-07T05:02:50;15.50;;;7.80;;
67352;SDS011;54238;52.278;21.056;2022-12-07T05:05:17;9.50;;;6.10;;
67352;SDS011;54238;52.278;21.056;2022-12-07T05:07:44;11.20;;;6.50;;
67352;SDS011;54238;52.278;21.056;2022-12-07T05:10:11;9.10;;;5.70;;
67352;SDS011;54238;52.278;21.056;2022-12-07T05:12:41;10.80;;;6.50;;
67352;SDS011;54238;52.278;21.056;2022-12-07T05:15:09;9.20;;;6.40;;
67352;SDS011;54238;52.278;21.056;2022-12-07T05:17:39;8.30;;;5.70;;
67352;SDS011;54238;52.278;21.056;2022-12-07T05:20:07;13.50;;;7.00;;
67352;SDS011;54238;52.278;21.056;2022-12-07T05:22:38;6.40;;;5.00;;
67352;SDS011;54238;52.278;21.056;2022-12-07T05:25:07;11.60;;;5.90;;
67352;SDS011;54238;52.278;21.056;2022-12-07T05:27:39;9.10;;;5.90;;
67352;SDS011;54238;52.278;21.056;2022-12-07T05:30:07;10.00;;;6.40;;
67352;SDS011;54238;52.278;21.056;2022-12-07T05:32:37;14.60;;;8.20;;
67352;SDS011;54238;52.278;21.056;2022-12-07T05:35:08;12.20;;;6.50;;
67352;SDS011;54238;52.278;21.056;2022-12-07T05:37:35;7.90;;;5.20;;
67352;SDS011;54238;52.278;21.056;2022-12-07T05:40:04;12.40;;;7.20;;
67352;SDS011;54238;52.278;21.056;2022-12-07T05:42:32;10.80;;;7.20;;
67352;SDS011;54238;52.278;21.056;2022-12-07T05:45:05;8.40;;;6.30;;
67352;SDS011;54238;52.278;21.056;2022-12-07T05:47:33;10.00;;;5.80;;
67352;SDS011;54238;52.278;21.056;2022-12-07T05:50:00;9.50;;;6.60;;
67352;SDS011;54238;52.278;21.056;2022-12-07T05:52:30;11.50;;;6.50;;
67352;SDS011;54238;52.278;21.056;2022-12-07T05:55:00;7.80;;;5.60;;
67352;SDS011;54238;52.278;21.056;2022-12-07T05:57:27;10.00;;;6.10;;
67352;SDS011;54238;52.278;21.056;2022-12-07T05:59:56;13.40;;;6.40;;
67352;SDS011;54238;52.278;21.056;2022-12-07T06:02:26;8.80;;;5.90;;
67352;SDS011;54238;52.278;21.056;2022-12-07T06:04:53;7.00;;;4.90;;
67352;SDS011;54238;52.278;21.056;2022-12-07T06:07:22;9.90;;;6.60;;
67352;SDS011;54238;52.278;21.056;2022-12-07T06:09:49;8.70;;;6.00;;
67352;SDS011;54238;52.278;21.056;2022-12-07T06:12:16;8.90;;;5.70;;
67352;SDS011;54238;52.278;21.056;2022-12-07T06:15:02;8.10;;;5.70;;
67352;SDS011;54238;52.278;21.056;2022-12-07T06:17:34;13.20;;;6.60;;
67352;SDS011;54238;52.278;21.056;2022-12-07T06:20:03;12.00;;;7.10;;
67352;SDS011;54238;52.278;21.056;2022-12-07T06:22:31;9.60;;;6.90;;
67352;SDS011;54238;52.278;21.056;2022-12-07T06:24:59;10.10;;;6.80;;
67352;SDS011;54238;52.278;21.056;2022-12-07T06:27:25;9.30;;;5.70;;
67352;SDS011;54238;52.278;21.056;2022-12-07T06:29:53;7.30;;;5.30;;
67352;SDS011;54238;52.278;21.056;2022-12-07T06:32:27;8.20;;;5.40;;
67352;SDS011;54238;52.278;21.056;2022-12-07T06:34:54;10.20;;;5.90;;
67352;SDS011;54238;52.278;21.056;2022-12-07T06:37:23;12.50;;;6.90;;
67352;SDS011;54238;52.278;21.056;2022-12-07T06:39:50;10.20;;;6.40;;
67352;SDS011;54238;52.278;21.056;2022-12-07T06:42:22;9.90;;;6.10;;
67352;SDS011;54238;52.278;21.056;2022-12-07T06:44:49;8.40;;;5.90;;
67352;SDS011;54238;52.278;21.056;2022-12-07T06:47:18;9.30;;;5.50;;
67352;SDS011;54238;52.278;21.056;2022-12-07T06:49:45;7.40;;;5.00;;
67352;SDS011;54238;52.278;21.056;2022-12-07T06:52:15;6.30;;;3.50;;
67352;SDS011;54238;52.278;21.056;2022-12-07T06:54:44;7.50;;;4.70;;
67352;SDS011;54238;52.278;21.056;2022-12-07T06:57:11;6.30;;;4.20;;
67352;SDS011;54238;52.278;21.056;2022-12-07T06:59:41;7.50;;;3.70;;
67352;SDS011;54238;52.278;21.056;2022-12-07T07:02:10;9.70;;;5.00;;
67352;SDS011;54238;52.278;21.056;2022-12-07T07:04:38;6.60;;;4.40;;
67352;SDS011;54238;52.278;21.056;2022-12-07T07:07:05;8.40;;;5.00;;
67352;SDS011;54238;52.278;21.056;2022-12-07T07:09:39;7.10;;;4.70;;
67352;SDS011;54238;52.278;21.056;2022-12-07T07:12:08;6.00;;;3.50;;
67352;SDS011;54238;52.278;21.056;2022-12-07T07:14:35;10.10;;;5.40;;
67352;SDS011;54238;52.278;21.056;2022-12-07T07:17:03;13.60;;;6.80;;
67352;SDS011;54238;52.278;21.056;2022-12-07T07:19:32;21.50;;;9.80;;
67352;SDS011;54238;52.278;21.056;2022-12-07T07:21:59;14.30;;;8.20;;
67352;SDS011;54238;52.278;21.056;2022-12-07T07:24:37;10.70;;;5.50;;
67352;SDS011;54238;52.278;21.056;2022-12-07T07:27:04;9.90;;;6.60;;
67352;SDS011;54238;52.278;21.056;2022-12-07T07:29:34;10.00;;;6.10;;
67352;SDS011;54238;52.278;21.056;2022-12-07T07:32:03;8.20;;;5.90;;
67352;SDS011;54238;52.278;21.056;2022-12-07T07:34:31;7.30;;;4.90;;
67352;SDS011;54238;52.278;21.056;2022-12-07T07:37:01;7.40;;;5.00;;
67352;SDS011;54238;52.278;21.056;2022-12-07T07:39:28;8.20;;;4.40;;
67352;SDS011;54238;52.278;21.056;2022-12-07T07:42:00;7.60;;;5.10;;
67352;SDS011;54238;52.278;21.056;2022-12-07T07:44:27;6.70;;;4.90;;
67352;SDS011;54238;52.278;21.056;2022-12-07T07:46:56;9.60;;;5.20;;
67352;SDS011;54238;52.278;21.056;2022-12-07T07:49:33;7.10;;;3.80;;
67352;SDS011;54238;52.278;21.056;2022-12-07T07:52:05;9.00;;;5.10;;
67352;SDS011;54238;52.278;21.056;2022-12-07T07:54:37;14.20;;;7.90;;
67352;SDS011;54238;52.278;21.056;2022-12-07T07:57:11;14.30;;;7.30;;
67352;SDS011;54238;52.278;21.056;2022-12-07T07:59:44;15.30;;;9.30;;
67352;SDS011;54238;52.278;21.056;2022-12-07T08:02:16;8.60;;;5.60;;
67352;SDS011;54238;52.278;21.056;2022-12-07T08:04:45;8.40;;;5.80;;
67352;SDS011;54238;52.278;21.056;2022-12-07T08:07:15;9.10;;;6.00;;
67352;SDS011;54238;52.278;21.056;2022-12-07T08:09:47;10.60;;;6.20;;
67352;SDS011;54238;52.278;21.056;2022-12-07T08:12:14;7.90;;;5.40;;
67352;SDS011;54238;52.278;21.056;2022-12-07T08:14:44;6.30;;;4.00;;
67352;SDS011;54238;52.278;21.056;2022-12-07T08:17:11;12.50;;;7.40;;
67352;SDS011;54238;52.278;21.056;2022-12-07T08:19:39;16.90;;;7.60;;
67352;SDS011;54238;52.278;21.056;2022-12-07T08:22:08;13.10;;;8.20;;
67352;SDS011;54238;52.278;21.056;2022-12-07T08:24:35;9.70;;;5.70;;
67352;SDS011;54238;52.278;21.056;2022-12-07T08:27:03;8.40;;;5.50;;
67352;SDS011;54238;52.278;21.056;2022-12-07T08:29:34;13.10;;;6.70;;
67352;SDS011;54238;52.278;21.056;2022-12-07T08:32:06;21.60;;;7.20;;
67352;SDS011;54238;52.278;21.056;2022-12-07T08:34:35;9.70;;;6.10;;
67352;SDS011;54238;52.278;21.056;2022-12-07T08:37:06;15.50;;;8.90;;
67352;SDS011;54238;52.278;21.056;2022-12-07T08:39:33;14.50;;;7.50;;
67352;SDS011;54238;52.278;21.056;2022-12-07T08:42:02;13.80;;;8.90;;
67352;SDS011;54238;52.278;21.056;2022-12-07T08:44:34;18.40;;;9.30;;
67352;SDS011;54238;52.278;21.056;2022-12-07T08:47:06;14.20;;;8.20;;
67352;SDS011;54238;52.278;21.056;2022-12-07T08:49:42;19.80;;;9.70;;
67352;SDS011;54238;52.278;21.056;2022-12-07T08:52:13;22.10;;;9.20;;
67352;SDS011;54238;52.278;21.056;2022-12-07T08:54:41;17.50;;;9.80;;
67352;SDS011;54238;52.278;21.056;2022-12-07T08:57:11;13.90;;;8.30;;
67352;SDS011;54238;52.278;21.056;2022-12-07T08:59:40;20.50;;;10.00;;
67352;SDS011;54238;52.278;21.056;2022-12-07T09:02:11;17.80;;;10.90;;
67352;SDS011;54238;52.278;21.056;2022-12-07T09:04:40;18.10;;;9.80;;
67352;SDS011;54238;52.278;21.056;2022-12-07T09:07:10;14.10;;;8.30;;
67352;SDS011;54238;52.278;21.056;2022-12-07T09:09:39;21.90;;;10.80;;
67352;SDS011;54238;52.278;21.056;2022-12-07T09:12:08;21.10;;;10.00;;
67352;SDS011;54238;52.278;21.056;2022-12-07T09:14:38;20.80;;;10.90;;
67352;SDS011;54238;52.278;21.056;2022-12-07T09:17:09;13.90;;;9.20;;
67352;SDS011;54238;52.278;21.056;2022-12-07T09:19:44;21.60;;;11.70;;
67352;SDS011;54238;52.278;21.056;2022-12-07T09:22:13;21.50;;;10.80;;
67352;SDS011;54238;52.278;21.056;2022-12-07T09:24:43;17.80;;;10.60;;
67352;SDS011;54238;52.278;21.056;2022-12-07T09:27:12;12.70;;;8.60;;
67352;SDS011;54238;52.278;21.056;2022-12-07T09:29:44;20.70;;;10.60;;
67352;SDS011;54238;52.278;21.056;2022-12-07T09:32:10;15.80;;;9.10;;
67352;SDS011;54238;52.278;21.056;2022-12-07T09:34:39;14.10;;;9.30;;
67352;SDS011;54238;52.278;21.056;2022-12-07T09:37:07;20.20;;;11.10;;
67352;SDS011;54238;52.278;21.056;2022-12-07T09:39:40;18.80;;;10.70;;
67352;SDS011;54238;52.278;21.056;2022-12-07T09:42:08;18.90;;;11.20;;
67352;SDS011;54238;52.278;21.056;2022-12-07T09:44:45;15.80;;;9.50;;
67352;SDS011;54238;52.278;21.056;2022-12-07T09:47:12;19.30;;;11.80;;
67352;SDS011;54238;52.278;21.056;2022-12-07T09:49:44;19.40;;;10.10;;
67352;SDS011;54238;52.278;21.056;2022-12-07T09:52:36;12.90;;;8.00;;
67352;SDS011;54238;52.278;21.056;2022-12-07T09:55:12;14.40;;;9.20;;
67352;SDS011;54238;52.278;21.056;2022-12-07T09:57:44;16.30;;;9.80;;
67352;SDS011;54238;52.278;21.056;2022-12-07T10:00:15;21.70;;;11.80;;
67352;SDS011;54238;52.278;21.056;2022-12-07T10:05:46;15.80;;;9.70;;
67352;SDS011;54238;52.278;21.056;2022-12-07T10:08:17;20.90;;;11.20;;
67352;SDS011;54238;52.278;21.056;2022-12-07T10:10:47;17.90;;;9.80;;
67352;SDS011;54238;52.278;21.056;2022-12-07T10:13:33;19.70;;;10.30;;
67352;SDS011;54238;52.278;21.056;2022-12-07T10:16:02;16.70;;;9.60;;
67352;SDS011;54238;52.278;21.056;2022-12-07T10:18:40;15.70;;;9.60;;
67352;SDS011;54238;52.278;21.056;2022-12-07T10:21:17;18.50;;;10.00;;
67352;SDS011;54238;52.278;21.056;2022-12-07T10:26:40;16.50;;;10.10;;
67352;SDS011;54238;52.278;21.056;2022-12-07T10:31:58;16.40;;;9.40;;
67352;SDS011;54238;52.278;21.056;2022-12-07T10:34:32;14.60;;;8.70;;
67352;SDS011;54238;52.278;21.056;2022-12-07T10:41:29;19.90;;;11.20;;
67352;SDS011;54238;52.278;21.056;2022-12-07T10:43:57;22.40;;;12.00;;
67352;SDS011;54238;52.278;21.056;2022-12-07T11:02:32;17.70;;;8.80;;
67352;SDS011;54238;52.278;21.056;2022-12-07T11:12:25;19.70;;;11.60;;
67352;SDS011;54238;52.278;21.056;2022-12-07T11:15:26;11.70;;;7.10;;
67352;SDS011;54238;52.278;21.056;2022-12-07T11:18:24;15.60;;;8.70;;
67352;SDS011;54238;52.278;21.056;2022-12-07T11:24:10;16.10;;;9.90;;
67352;SDS011;54238;52.278;21.056;2022-12-07T11:41:21;12.10;;;8.20;;
67352;SDS011;54238;52.278;21.056;2022-12-07T11:44:06;16.50;;;10.50;;
67352;SDS011;54238;52.278;21.056;2022-12-07T11:46:51;18.40;;;11.00;;
67352;SDS011;54238;52.278;21.056;2022-12-07T11:55:39;16.50;;;11.10;;
67352;SDS011;54238;52.278;21.056;2022-12-07T11:58:40;13.10;;;9.30;;
67352;SDS011;54238;52.278;21.056;2022-12-07T12:04:07;17.90;;;11.60;;
67352;SDS011;54238;52.278;21.056;2022-12-07T12:06:40;15.20;;;10.50;;
67352;SDS011;54238;52.278;21.056;2022-12-07T12:20:32;18.60;;;12.50;;
67352;SDS011;54238;52.278;21.056;2022-12-07T12:23:22;14.20;;;10.50;;
67352;SDS011;54238;52.278;21.056;2022-12-07T12:26:01;8.60;;;6.40;;
67352;SDS011;54238;52.278;21.056;2022-12-07T12:28:41;12.60;;;8.20;;
67352;SDS011;54238;52.278;21.056;2022-12-07T12:33:54;11.90;;;8.20;;
67352;SDS011;54238;52.278;21.056;2022-12-07T12:36:46;16.40;;;10.70;;
67352;SDS011;54238;52.278;21.056;2022-12-07T12:39:18;10.70;;;7.60;;
67352;SDS011;54238;52.278;21.056;2022-12-07T12:46:46;15.00;;;10.60;;
67352;SDS011;54238;52.278;21.056;2022-12-07T12:52:45;17.50;;;10.70;;
67352;SDS011;54238;52.278;21.056;2022-12-07T12:55:18;16.00;;;10.40;;
67352;SDS011;54238;52.278;21.056;2022-12-07T13:01:33;14.00;;;9.50;;
67352;SDS011;54238;52.278;21.056;2022-12-07T13:03:56;16.60;;;9.20;;
67352;SDS011;54238;52.278;21.056;2022-12-07T13:08:58;16.60;;;10.50;;
67352;SDS011;54238;52.278;21.056;2022-12-07T13:11:34;15.10;;;9.80;;
67352;SDS011;54238;52.278;21.056;2022-12-07T13:14:38;17.90;;;10.30;;
67352;SDS011;54238;52.278;21.056;2022-12-07T13:19:59;12.80;;;7.60;;
67352;SDS011;54238;52.278;21.056;2022-12-07T13:25:05;13.70;;;9.30;;
67352;SDS011;54238;52.278;21.056;2022-12-07T13:27:51;10.50;;;7.70;;
67352;SDS011;54238;52.278;21.056;2022-12-07T13:30:58;13.90;;;8.00;;
67352;SDS011;54238;52.278;21.056;2022-12-07T13:33:30;13.60;;;8.70;;
67352;SDS011;54238;52.278;21.056;2022-12-07T13:36:08;11.60;;;7.50;;
67352;SDS011;54238;52.278;21.056;2022-12-07T13:39:21;11.30;;;8.20;;
67352;SDS011;54238;52.278;21.056;2022-12-07T13:41:52;11.70;;;7.20;;
67352;SDS011;54238;52.278;21.056;2022-12-07T13:44:22;12.70;;;7.80;;
67352;SDS011;54238;52.278;21.056;2022-12-07T13:46:55;17.00;;;10.10;;
67352;SDS011;54238;52.278;21.056;2022-12-07T13:49:28;12.10;;;9.60;;
67352;SDS011;54238;52.278;21.056;2022-12-07T13:54:48;13.90;;;8.80;;
67352;SDS011;54238;52.278;21.056;2022-12-07T13:57:32;12.40;;;8.60;;
67352;SDS011;54238;52.278;21.056;2022-12-07T14:00:04;12.30;;;8.20;;
67352;SDS011;54238;52.278;21.056;2022-12-07T14:03:04;12.70;;;7.10;;
67352;SDS011;54238;52.278;21.056;2022-12-07T14:06:07;7.40;;;5.80;;
67352;SDS011;54238;52.278;21.056;2022-12-07T14:08:40;10.70;;;7.80;;
67352;SDS011;54238;52.278;21.056;2022-12-07T14:11:17;16.70;;;10.70;;
67352;SDS011;54238;52.278;21.056;2022-12-07T14:16:29;14.30;;;9.10;;
67352;SDS011;54238;52.278;21.056;2022-12-07T14:19:04;13.20;;;9.10;;
67352;SDS011;54238;52.278;21.056;2022-12-07T14:21:33;12.40;;;8.90;;
67352;SDS011;54238;52.278;21.056;2022-12-07T14:24:14;14.80;;;10.10;;
67352;SDS011;54238;52.278;21.056;2022-12-07T14:26:50;11.30;;;7.70;;
67352;SDS011;54238;52.278;21.056;2022-12-07T14:31:52;12.40;;;7.20;;
67352;SDS011;54238;52.278;21.056;2022-12-07T14:34:25;15.20;;;10.00;;
67352;SDS011;54238;52.278;21.056;2022-12-07T14:36:55;19.00;;;10.70;;
67352;SDS011;54238;52.278;21.056;2022-12-07T14:39:26;17.50;;;8.30;;
67352;SDS011;54238;52.278;21.056;2022-12-07T14:41:58;14.40;;;10.10;;
67352;SDS011;54238;52.278;21.056;2022-12-07T14:44:32;20.90;;;13.40;;
67352;SDS011;54238;52.278;21.056;2022-12-07T14:46:59;14.80;;;10.90;;
67352;SDS011;54238;52.278;21.056;2022-12-07T14:49:31;16.30;;;11.60;;
67352;SDS011;54238;52.278;21.056;2022-12-07T14:52:03;19.70;;;11.00;;
67352;SDS011;54238;52.278;21.056;2022-12-07T14:54:34;14.40;;;10.30;;
67352;SDS011;54238;52.278;21.056;2022-12-07T14:57:02;16.20;;;11.20;;
67352;SDS011;54238;52.278;21.056;2022-12-07T14:59:36;17.10;;;11.60;;
67352;SDS011;54238;52.278;21.056;2022-12-07T15:02:06;16.30;;;11.70;;
67352;SDS011;54238;52.278;21.056;2022-12-07T15:07:18;11.90;;;7.40;;
67352;SDS011;54238;52.278;21.056;2022-12-07T15:09:50;14.60;;;9.20;;
67352;SDS011;54238;52.278;21.056;2022-12-07T15:12:17;15.00;;;10.90;;
67352;SDS011;54238;52.278;21.056;2022-12-07T15:14:47;19.20;;;10.10;;
67352;SDS011;54238;52.278;21.056;2022-12-07T15:17:17;16.30;;;11.60;;
67352;SDS011;54238;52.278;21.056;2022-12-07T15:19:44;12.70;;;9.40;;
67352;SDS011;54238;52.278;21.056;2022-12-07T15:22:13;15.80;;;9.60;;
67352;SDS011;54238;52.278;21.056;2022-12-07T15:24:40;14.60;;;11.20;;
67352;SDS011;54238;52.278;21.056;2022-12-07T15:27:09;21.70;;;12.10;;
67352;SDS011;54238;52.278;21.056;2022-12-07T15:29:36;17.20;;;11.00;;
67352;SDS011;54238;52.278;21.056;2022-12-07T15:32:04;14.10;;;9.20;;
67352;SDS011;54238;52.278;21.056;2022-12-07T15:34:31;19.40;;;11.90;;
67352;SDS011;54238;52.278;21.056;2022-12-07T15:37:03;22.90;;;11.70;;
67352;SDS011;54238;52.278;21.056;2022-12-07T15:39:30;17.80;;;11.00;;
67352;SDS011;54238;52.278;21.056;2022-12-07T15:41:58;15.10;;;10.40;;
67352;SDS011;54238;52.278;21.056;2022-12-07T15:44:30;13.40;;;8.80;;
67352;SDS011;54238;52.278;21.056;2022-12-07T15:47:16;14.20;;;9.00;;
67352;SDS011;54238;52.278;21.056;2022-12-07T15:49:45;19.10;;;10.70;;
67352;SDS011;54238;52.278;21.056;2022-12-07T15:52:12;17.80;;;11.00;;
67352;SDS011;54238;52.278;21.056;2022-12-07T15:54:42;9.80;;;7.50;;
67352;SDS011;54238;52.278;21.056;2022-12-07T15:57:13;14.40;;;10.10;;
67352;SDS011;54238;52.278;21.056;2022-12-07T15:59:43;12.00;;;8.30;;
67352;SDS011;54238;52.278;21.056;2022-12-07T16:02:17;16.00;;;9.60;;
67352;SDS011;54238;52.278;21.056;2022-12-07T16:04:47;13.60;;;8.80;;
67352;SDS011;54238;52.278;21.056;2022-12-07T16:07:14;17.10;;;11.60;;
67352;SDS011;54238;52.278;21.056;2022-12-07T16:09:45;14.50;;;9.40;;
67352;SDS011;54238;52.278;21.056;2022-12-07T16:12:18;13.70;;;9.60;;
67352;SDS011;54238;52.278;21.056;2022-12-07T16:14:44;16.40;;;11.10;;
67352;SDS011;54238;52.278;21.056;2022-12-07T16:17:14;16.30;;;12.20;;
67352;SDS011;54238;52.278;21.056;2022-12-07T16:19:41;19.60;;;11.30;;
67352;SDS011;54238;52.278;21.056;2022-12-07T16:22:08;11.30;;;7.30;;
67352;SDS011;54238;52.278;21.056;2022-12-07T16:24:38;14.00;;;9.40;;
67352;SDS011;54238;52.278;21.056;2022-12-07T16:27:06;15.70;;;9.90;;
67352;SDS011;54238;52.278;21.056;2022-12-07T16:29:38;18.80;;;11.20;;
67352;SDS011;54238;52.278;21.056;2022-12-07T16:32:07;24.20;;;11.80;;
67352;SDS011;54238;52.278;21.056;2022-12-07T16:34:34;21.00;;;14.10;;
67352;SDS011;54238;52.278;21.056;2022-12-07T16:37:02;18.40;;;11.10;;
67352;SDS011;54238;52.278;21.056;2022-12-07T16:39:36;16.00;;;9.00;;
67352;SDS011;54238;52.278;21.056;2022-12-07T16:42:03;19.40;;;10.20;;
67352;SDS011;54238;52.278;21.056;2022-12-07T16:44:30;14.80;;;9.40;;
67352;SDS011;54238;52.278;21.056;2022-12-07T16:47:00;18.10;;;11.10;;
67352;SDS011;54238;52.278;21.056;2022-12-07T16:49:29;12.30;;;7.90;;
67352;SDS011;54238;52.278;21.056;2022-12-07T16:51:56;14.30;;;9.10;;
67352;SDS011;54238;52.278;21.056;2022-12-07T16:54:28;22.80;;;12.60;;
67352;SDS011;54238;52.278;21.056;2022-12-07T16:57:00;18.60;;;11.60;;
67352;SDS011;54238;52.278;21.056;2022-12-07T16:59:27;13.10;;;8.00;;
67352;SDS011;54238;52.278;21.056;2022-12-07T17:01:54;17.10;;;10.70;;
67352;SDS011;54238;52.278;21.056;2022-12-07T17:04:21;18.00;;;11.80;;
67352;SDS011;54238;52.278;21.056;2022-12-07T17:06:50;19.30;;;12.30;;
67352;SDS011;54238;52.278;21.056;2022-12-07T17:09:20;18.60;;;11.10;;
67352;SDS011;54238;52.278;21.056;2022-12-07T17:11:50;19.10;;;11.10;;